Terminal Aerodrome Forecast
Issued by NWS

Home | Current Version | Previous Version | Graphics & Text | Print | Product List | Glossary On
Versions: 1 2 3 4 5 6 7 8 9 10 11 12 13 14 15 16 17 18 19
903
FTUS43 KICT 182329
TAFRSL
TAF
KRSL 182329Z 1900/1924 19028G35KT P6SM SCT120 BKN250
     FM190100 18017G25KT P6SM SCT250
     FM190300 19017G24KT P6SM SCT250 WS020/21045KT
     FM190800 26017G25KT P6SM SCT250
     FM191200 35015G23KT P6SM BKN045
     FM192100 01012KT P6SM SCT120=

USA.gov is the U.S. government's official web portal to all federal, state and local government web resources and services.